メインページ
METAR-TAF:

METAR-TAF

空港 :

Adrian, ミシガン州, アメリカ合衆国

緯度: 41-52-04N, 経度: 084-04-46W, 海抜: 244m

現時点の気象観測

当レポートは48分前の01:53(UTC)に作成
の風 5kt
気温 -3°C
湿度 74%
気圧 1027 hPa
視程: 16.1km
晴天

METAR: KADG 070153Z AUTO 35005KT 10SM CLR M03/M07 A3034 RMK AO2 SLP285 T10281072

時間: 21:41 (02:41 UTC)


TAF: 見つかりません

4,000以上の空港の気象観測と天気予報(METAR報とTAF報)

利用可能な観測所は地図上に黄色い丸と赤い丸で示す。

丸の上にカーソルを重ねると観測所名を参照できる。

次にクリックすると気象観測と天気予報を参照できる。

マップの切り替え:黒色「×」印の緑ボタンをクリックして拡大、「-」印の緑ボタンをクリックして縮小、緑色の三角印をクリックして隣りの地図に切り替え


METAR-TAF: